Time;durP1;ratioP1;P1;durP2;ratioP2;P2;SDS_P1;SDS_P2;PMS_P1;PMS_P2;Temp;Humidity;BMP_temperature;BMP_pressure;BME280_temperature;BME280_humidity;BME280_pressure;Samples;Min_cycle;Max_cycle;Signal;HPM_P1;HPM_P2
2021/11/03 00:01:18;;;;;;;2.85;2.65;;;;;;;;;;5033868;28;20194;-86
2021/11/03 00:03:49;;;;;;;2.72;2.53;;;;;;;;;;5033416;28;20182;-87
2021/11/03 00:06:20;;;;;;;3.60;3.40;;;;;;;;;;5033690;28;20270;-87
2021/11/03 00:08:49;;;;;;;3.47;3.17;;;;;;;;;;5034332;28;20595;-87
2021/11/03 00:11:17;;;;;;;3.33;3.03;;;;;;;;;;5034296;28;20643;-86
2021/11/03 00:13:46;;;;;;;3.97;3.67;;;;;;;;;;5034031;28;20266;-87
2021/11/03 00:16:13;;;;;;;2.97;2.78;;;;;;;;;;5033777;28;20203;-87
2021/11/03 00:18:42;;;;;;;3.85;3.55;;;;;;;;;;5033856;28;20226;-87
2021/11/03 00:21:11;;;;;;;3.90;3.60;;;;;;;;;;5034130;28;20233;-87
2021/11/03 00:23:39;;;;;;;4.03;3.72;;;;;;;;;;5034242;28;20187;-87
2021/11/03 00:26:06;;;;;;;2.78;2.58;;;;;;;;;;5034934;28;20188;-86
2021/11/03 00:28:34;;;;;;;3.10;2.90;;;;;;;;;;5034466;28;20226;-86
2021/11/03 00:31:03;;;;;;;2.90;2.70;;;;;;;;;;5034661;28;20210;-87
2021/11/03 00:33:33;;;;;;;3.75;3.45;;;;;;;;;;5034292;28;20209;-86
2021/11/03 00:36:01;;;;;;;3.70;3.40;;;;;;;;;;5034031;28;20191;-86
2021/11/03 00:38:30;;;;;;;3.00;2.80;;;;;;;;;;5033912;28;20226;-87
2021/11/03 00:40:58;;;;;;;3.42;3.13;;;;;;;;;;5034617;28;20186;-86
2021/11/03 00:43:27;;;;;;;3.83;3.53;;;;;;;;;;5034213;28;20672;-86
2021/11/03 00:45:54;;;;;;;2.50;2.30;;;;;;;;;;5034414;28;20189;-86
2021/11/03 00:48:24;;;;;;;2.45;2.25;;;;;;;;;;5034325;28;20228;-87
2021/11/03 00:51:09;;;;;;;2.42;2.33;;;;;;;;;;5033011;28;20309;-87
2021/11/03 00:57:21;;;;;;;3.47;3.17;;;;;;;;;;5013037;28;20202;-87
2021/11/03 01:00:01;;;;;;;4.70;4.30;;;;;;;;;;5013308;28;20233;-87
2021/11/03 01:03:06;;;;;;;4.28;3.88;;;;;;;;;;5013301;28;20208;-87
2021/11/03 01:05:38;;;;;;;3.83;3.53;;;;;;;;;;5016224;28;20175;-87
2021/11/03 01:08:41;;;;;;;4.57;4.18;;;;;;;;;;5017021;28;20557;-87
2021/11/03 01:11:10;;;;;;;3.58;3.28;;;;;;;;;;5017144;28;20663;-87
2021/11/03 01:13:39;;;;;;;3.05;2.83;;;;;;;;;;5017037;28;20193;-87
2021/11/03 01:16:28;;;;;;;3.55;3.25;;;;;;;;;;5016675;28;20209;-87
2021/11/03 01:18:56;;;;;;;3.95;3.63;;;;;;;;;;5016723;28;20257;-87
2021/11/03 01:21:35;;;;;;;3.35;3.05;;;;;;;;;;5016559;28;20202;-87
2021/11/03 01:24:12;;;;;;;3.70;3.40;;;;;;;;;;5017031;28;20191;-87
2021/11/03 01:26:59;;;;;;;3.80;3.50;;;;;;;;;;5017039;28;20262;-87
2021/11/03 01:29:29;;;;;;;4.22;3.83;;;;;;;;;;5016781;28;20222;-87
2021/11/03 01:32:18;;;;;;;3.63;3.33;;;;;;;;;;5016485;28;20560;-87
2021/11/03 01:35:08;;;;;;;3.40;3.10;;;;;;;;;;5016758;28;20637;-87
2021/11/03 01:37:39;;;;;;;3.28;3.08;;;;;;;;;;5016973;28;20226;-87
2021/11/03 01:40:32;;;;;;;3.05;2.85;;;;;;;;;;5016154;28;20231;-87
2021/11/03 01:43:00;;;;;;;2.75;2.55;;;;;;;;;;5016722;28;20194;-87
2021/11/03 01:45:48;;;;;;;2.50;2.35;;;;;;;;;;5016340;28;20199;-87
2021/11/03 01:48:16;;;;;;;2.20;2.10;;;;;;;;;;5015871;28;20660;-88
2021/11/03 01:50:57;;;;;;;2.88;2.67;;;;;;;;;;5016751;28;20187;-87
2021/11/03 01:53:36;;;;;;;3.05;2.85;;;;;;;;;;5016411;28;20188;-87
2021/11/03 01:56:10;;;;;;;3.03;2.83;;;;;;;;;;5015922;28;20207;-87
2021/11/03 01:58:43;;;;;;;3.35;3.08;;;;;;;;;;5016049;28;20232;-87
2021/11/03 02:01:11;;;;;;;4.07;3.80;;;;;;;;;;5016158;28;20198;-87
2021/11/03 02:03:46;;;;;;;4.32;3.92;;;;;;;;;;5016061;28;20210;-87
2021/11/03 02:06:26;;;;;;;3.03;2.83;;;;;;;;;;5016383;28;20195;-88
2021/11/03 02:09:01;;;;;;;4.25;3.85;;;;;;;;;;5016344;28;20229;-87
2021/11/03 02:11:57;;;;;;;4.47;4.07;;;;;;;;;;5016274;28;20679;-87
2021/11/03 02:14:26;;;;;;;4.47;4.07;;;;;;;;;;5015937;28;20185;-87
2021/11/03 02:17:58;;;;;;;4.60;4.20;;;;;;;;;;5014980;28;20192;-88
2021/11/03 02:20:27;;;;;;;3.40;3.10;;;;;;;;;;5015826;28;20218;-87
2021/11/03 02:23:13;;;;;;;3.47;3.17;;;;;;;;;;5015932;28;20183;-88
2021/11/03 02:25:56;;;;;;;2.50;2.30;;;;;;;;;;5015823;28;20191;-87
2021/11/03 02:28:47;;;;;;;5.30;4.80;;;;;;;;;;5016553;28;20229;-87
2021/11/03 02:35:26;;;;;;;4.03;3.72;;;;;;;;;;5015959;28;20198;-89
2021/11/03 02:38:28;;;;;;;5.03;4.57;;;;;;;;;;5015538;28;20686;-87
2021/11/03 02:41:11;;;;;;;5.32;4.82;;;;;;;;;;5016098;28;20218;-87
2021/11/03 02:43:44;;;;;;;3.45;3.25;;;;;;;;;;5015655;28;20589;-87
2021/11/03 02:46:26;;;;;;;3.30;3.00;;;;;;;;;;5015462;28;20175;-88
2021/11/03 02:48:54;;;;;;;3.50;3.20;;;;;;;;;;5011589;28;20250;-88
2021/11/03 02:51:32;;;;;;;4.95;4.55;;;;;;;;;;5015539;28;20547;-88
2021/11/03 02:54:07;;;;;;;3.33;3.03;;;;;;;;;;5015821;28;20641;-88
2021/11/03 02:57:47;;;;;;;2.70;2.50;;;;;;;;;;5015642;28;20187;-88
2021/11/03 03:00:25;;;;;;;2.92;2.72;;;;;;;;;;5015928;28;20227;-87
2021/11/03 03:02:54;;;;;;;2.70;2.50;;;;;;;;;;5016647;28;20217;-88
2021/11/03 03:05:23;;;;;;;2.90;2.70;;;;;;;;;;5016175;28;20194;-87
2021/11/03 03:08:05;;;;;;;3.40;3.20;;;;;;;;;;5016245;28;20704;-87
2021/11/03 03:10:52;;;;;;;4.22;3.85;;;;;;;;;;5015415;28;20199;-87
2021/11/03 03:13:38;;;;;;;2.88;2.65;;;;;;;;;;5015717;28;20644;-88
2021/11/03 03:16:40;;;;;;;3.08;2.88;;;;;;;;;;5015419;28;20637;-87
2021/11/03 03:19:33;;;;;;;3.38;3.08;;;;;;;;;;5015341;28;20226;-87
2021/11/03 03:22:50;;;;;;;2.38;2.25;;;;;;;;;;5015227;28;20200;-87
2021/11/03 03:28:59;;;;;;;3.08;2.88;;;;;;;;;;5013843;28;20583;-87
2021/11/03 03:31:32;;;;;;;3.40;3.10;;;;;;;;;;5014508;28;20664;-87
2021/11/03 03:34:14;;;;;;;4.05;3.45;;;;;;;;;;5014940;28;20562;-87
2021/11/03 03:36:54;;;;;;;3.78;3.47;;;;;;;;;;5015389;28;20554;-87
2021/11/03 03:39:25;;;;;;;4.40;4.00;;;;;;;;;;5014975;28;20215;-87
2021/11/03 03:42:01;;;;;;;4.95;4.45;;;;;;;;;;5014937;28;20591;-87
2021/11/03 03:44:39;;;;;;;4.15;3.78;;;;;;;;;;5015118;28;20189;-87
2021/11/03 03:47:31;;;;;;;3.70;3.40;;;;;;;;;;5014904;28;20179;-87
2021/11/03 03:50:39;;;;;;;4.18;3.88;;;;;;;;;;5014548;28;20622;-87
2021/11/03 03:53:53;;;;;;;3.20;3.00;;;;;;;;;;5014182;28;20677;-88
2021/11/03 03:57:16;;;;;;;3.13;2.92;;;;;;;;;;5013998;28;20186;-88
2021/11/03 04:03:25;;;;;;;2.78;2.58;;;;;;;;;;5013767;28;20198;-87
2021/11/03 04:06:54;;;;;;;3.85;3.55;;;;;;;;;;5013672;28;20199;-88
2021/11/03 04:09:31;;;;;;;2.88;2.67;;;;;;;;;;5013770;28;20226;-87
2021/11/03 04:12:20;;;;;;;3.83;3.53;;;;;;;;;;5013893;28;20660;-89
2021/11/03 04:15:16;;;;;;;2.92;2.67;;;;;;;;;;5013524;28;20641;-87
2021/11/03 04:18:33;;;;;;;3.00;2.80;;;;;;;;;;5013435;28;20208;-87
2021/11/03 04:21:13;;;;;;;3.22;3.00;;;;;;;;;;5013448;28;20215;-87
2021/11/03 04:23:42;;;;;;;2.50;2.33;;;;;;;;;;5013555;28;20190;-87
2021/11/03 04:26:23;;;;;;;2.72;2.53;;;;;;;;;;5013930;28;20187;-85
2021/11/03 04:28:53;;;;;;;2.63;2.42;;;;;;;;;;5013398;28;20221;-86
2021/11/03 04:31:33;;;;;;;3.17;2.88;;;;;;;;;;5013281;28;20179;-86
2021/11/03 04:34:00;;;;;;;3.10;2.80;;;;;;;;;;5013232;28;20195;-86
2021/11/03 04:36:29;;;;;;;2.33;2.22;;;;;;;;;;5013258;28;20214;-86
2021/11/03 04:39:10;;;;;;;2.45;2.25;;;;;;;;;;5012848;28;20234;-86
2021/11/03 04:41:49;;;;;;;2.67;2.47;;;;;;;;;;5013315;28;20222;-86
2021/11/03 04:44:18;;;;;;;2.40;2.20;;;;;;;;;;5013041;28;20186;-87
2021/11/03 04:46:51;;;;;;;2.53;2.33;;;;;;;;;;5012861;28;20206;-86
2021/11/03 04:49:19;;;;;;;2.00;1.90;;;;;;;;;;5007082;28;20573;-86
2021/11/03 04:52:04;;;;;;;3.17;2.88;;;;;;;;;;5013367;28;20231;-89
2021/11/03 04:55:18;;;;;;;3.30;3.00;;;;;;;;;;5013031;28;20576;-87
2021/11/03 04:57:59;;;;;;;2.75;2.55;;;;;;;;;;5013309;28;20209;-88
2021/11/03 05:01:20;;;;;;;3.10;2.90;;;;;;;;;;5012556;28;20203;-87
2021/11/03 05:04:11;;;;;;;3.03;2.72;;;;;;;;;;5013064;28;20202;-87
2021/11/03 05:07:44;;;;;;;3.58;3.28;;;;;;;;;;5013193;28;20187;-87
2021/11/03 05:10:57;;;;;;;3.63;3.33;;;;;;;;;;5013059;28;20214;-87
2021/11/03 05:17:08;;;;;;;3.45;3.15;;;;;;;;;;5012936;28;20702;-87
2021/11/03 05:19:53;;;;;;;2.83;2.63;;;;;;;;;;5012607;28;20716;-87
2021/11/03 05:26:02;;;;;;;3.70;3.40;;;;;;;;;;5012726;28;20174;-87
2021/11/03 05:28:55;;;;;;;4.38;4.00;;;;;;;;;;5012424;28;20733;-87
2021/11/03 05:31:39;;;;;;;4.93;4.53;;;;;;;;;;5012808;28;20180;-87
2021/11/03 05:34:41;;;;;;;3.70;3.40;;;;;;;;;;5012930;28;20211;-88
2021/11/03 05:37:57;;;;;;;5.15;4.65;;;;;;;;;;5012900;28;20191;-88
2021/11/03 05:41:11;;;;;;;5.60;5.20;;;;;;;;;;5012673;28;20191;-88
2021/11/03 05:43:56;;;;;;;6.82;6.13;;;;;;;;;;5012696;28;20179;-88
2021/11/03 05:46:41;;;;;;;6.18;5.65;;;;;;;;;;5012528;28;20184;-88
2021/11/03 05:49:34;;;;;;;5.32;4.85;;;;;;;;;;5012177;28;20225;-89
2021/11/03 05:52:38;;;;;;;7.10;6.40;;;;;;;;;;4975534;28;20211;-90
2021/11/03 05:55:43;;;;;;;5.10;4.60;;;;;;;;;;4977263;28;20218;-89
2021/11/03 05:59:02;;;;;;;5.20;4.75;;;;;;;;;;4977062;28;20216;-92
2021/11/03 06:01:51;;;;;;;4.93;4.38;;;;;;;;;;4976876;28;20697;-89
2021/11/03 06:04:39;;;;;;;6.00;5.50;;;;;;;;;;4977003;28;20569;-90
2021/11/03 06:07:33;;;;;;;5.05;4.65;;;;;;;;;;4977009;28;20231;-89
2021/11/03 06:10:40;;;;;;;4.50;4.10;;;;;;;;;;4977070;28;20697;-90
2021/11/03 06:13:15;;;;;;;4.38;4.00;;;;;;;;;;4976919;28;20616;-90
2021/11/03 06:15:47;;;;;;;6.70;6.10;;;;;;;;;;4976641;28;20185;-90
2021/11/03 06:18:16;;;;;;;5.82;5.32;;;;;;;;;;4976599;28;20567;-90
2021/11/03 06:20:47;;;;;;;5.63;5.13;;;;;;;;;;4976805;28;20546;-90
2021/11/03 06:24:15;;;;;;;5.60;5.10;;;;;;;;;;4976500;28;20223;-89
2021/11/03 06:27:15;;;;;;;4.30;4.00;;;;;;;;;;4976276;28;20687;-89
2021/11/03 06:30:12;;;;;;;4.28;3.90;;;;;;;;;;4976335;28;20212;-90
2021/11/03 06:32:59;;;;;;;4.78;4.32;;;;;;;;;;4976397;28;20240;-89
2021/11/03 06:35:38;;;;;;;4.10;3.80;;;;;;;;;;4976448;28;20204;-90
2021/11/03 06:38:42;;;;;;;5.63;5.22;;;;;;;;;;4976315;28;20208;-89
2021/11/03 06:41:22;;;;;;;4.40;4.00;;;;;;;;;;4976145;28;20649;-89
2021/11/03 06:44:07;;;;;;;3.25;2.97;;;;;;;;;;4976471;28;20236;-90
2021/11/03 06:47:20;;;;;;;6.32;5.78;;;;;;;;;;4976342;28;20189;-90
2021/11/03 06:50:17;;;;;;;5.82;5.32;;;;;;;;;;4980051;28;20258;-88
2021/11/03 06:52:48;;;;;;;5.15;4.65;;;;;;;;;;4976431;28;20191;-88
2021/11/03 06:55:33;;;;;;;4.80;4.40;;;;;;;;;;4976123;28;20208;-88
2021/11/03 06:58:37;;;;;;;4.65;4.20;;;;;;;;;;4976223;28;20212;-89
2021/11/03 07:01:43;;;;;;;4.43;4.03;;;;;;;;;;4977053;28;20208;-89
2021/11/03 07:05:25;;;;;;;3.63;3.33;;;;;;;;;;4976267;28;20214;-89
2021/11/03 07:08:10;;;;;;;4.03;3.72;;;;;;;;;;4976068;28;20208;-89
2021/11/03 07:11:27;;;;;;;4.88;4.47;;;;;;;;;;4976136;28;20569;-89
2021/11/03 07:17:37;;;;;;;3.28;3.08;;;;;;;;;;4975831;28;20180;-89
2021/11/03 07:20:06;;;;;;;5.03;4.63;;;;;;;;;;4975857;28;20228;-88
2021/11/03 07:22:41;;;;;;;3.92;3.63;;;;;;;;;;4975770;28;20295;-88
2021/11/03 07:25:50;;;;;;;4.85;3.75;;;;;;;;;;4975918;28;20200;-89
2021/11/03 07:28:41;;;;;;;5.47;4.97;;;;;;;;;;4975550;28;20201;-89
2021/11/03 07:31:20;;;;;;;8.25;4.18;;;;;;;;;;4975699;28;20557;-88
2021/11/03 07:37:31;;;;;;;3.47;3.17;;;;;;;;;;4975416;28;20227;-90
2021/11/03 07:40:11;;;;;;;3.53;3.22;;;;;;;;;;4975314;28;20601;-89
2021/11/03 07:42:39;;;;;;;3.80;3.45;;;;;;;;;;4964137;28;20713;-90
2021/11/03 07:45:46;;;;;;;3.33;3.13;;;;;;;;;;4955565;28;20632;-90
2021/11/03 07:48:29;;;;;;;3.03;2.83;;;;;;;;;;4955725;28;20767;-90
2021/11/03 07:51:23;;;;;;;3.28;3.00;;;;;;;;;;4961055;28;20219;-90
2021/11/03 07:53:58;;;;;;;5.70;4.93;;;;;;;;;;4955934;28;20201;-91
2021/11/03 07:56:29;;;;;;;3.53;3.25;;;;;;;;;;4955823;28;20192;-90
2021/11/03 07:59:18;;;;;;;4.85;4.35;;;;;;;;;;4956015;28;20221;-88
2021/11/03 08:02:14;;;;;;;3.40;3.10;;;;;;;;;;4958733;28;20295;-87
2021/11/03 08:04:49;;;;;;;3.83;3.45;;;;;;;;;;4974856;28;20205;-89
2021/11/03 08:07:26;;;;;;;4.03;3.40;;;;;;;;;;4974731;28;20180;-88
2021/11/03 08:09:57;;;;;;;2.63;2.42;;;;;;;;;;4974720;28;20721;-86
2021/11/03 08:12:34;;;;;;;3.75;3.45;;;;;;;;;;4975188;28;20227;-88
2021/11/03 08:15:02;;;;;;;3.63;3.33;;;;;;;;;;4974462;28;20204;-85
2021/11/03 08:17:43;;;;;;;6.18;5.07;;;;;;;;;;4975078;28;20207;-87
2021/11/03 08:20:29;;;;;;;4.35;3.95;;;;;;;;;;4975059;28;20228;-87
2021/11/03 08:23:23;;;;;;;4.18;3.78;;;;;;;;;;4963893;28;20213;-87
2021/11/03 08:26:43;;;;;;;4.05;3.65;;;;;;;;;;4954957;28;20264;-87
2021/11/03 08:29:32;;;;;;;4.60;4.20;;;;;;;;;;4970561;28;20228;-87
2021/11/03 08:32:09;;;;;;;3.70;3.40;;;;;;;;;;4974472;28;20193;-86
2021/11/03 08:34:46;;;;;;;3.00;2.80;;;;;;;;;;4974532;28;20200;-87
2021/11/03 08:37:19;;;;;;;3.15;2.85;;;;;;;;;;4974380;28;20268;-87
2021/11/03 08:39:56;;;;;;;3.03;2.83;;;;;;;;;;4974416;28;20269;-87
2021/11/03 08:43:02;;;;;;;4.10;3.80;;;;;;;;;;4974398;28;20260;-87
2021/11/03 08:45:52;;;;;;;3.35;3.15;;;;;;;;;;4974818;28;20227;-88
2021/11/03 08:48:23;;;;;;;4.07;3.78;;;;;;;;;;4968065;28;20231;-87
2021/11/03 08:51:25;;;;;;;3.45;3.15;;;;;;;;;;4974786;28;20196;-86
2021/11/03 08:53:56;;;;;;;2.70;2.50;;;;;;;;;;5013338;28;20597;-87
2021/11/03 08:56:37;;;;;;;4.47;4.10;;;;;;;;;;5013146;28;20199;-88
2021/11/03 08:59:20;;;;;;;4.28;3.97;;;;;;;;;;5012900;28;20248;-87
2021/11/03 09:01:49;;;;;;;2.67;2.47;;;;;;;;;;5010020;28;20199;-87
2021/11/03 09:04:46;;;;;;;3.78;3.47;;;;;;;;;;5014137;28;20258;-87
2021/11/03 09:07:21;;;;;;;4.55;4.15;;;;;;;;;;4993893;28;20291;-86
2021/11/03 09:09:56;;;;;;;4.63;4.28;;;;;;;;;;4993966;28;20233;-86
2021/11/03 09:12:26;;;;;;;4.05;3.75;;;;;;;;;;4993891;28;20195;-86
2021/11/03 09:15:00;;;;;;;3.40;3.10;;;;;;;;;;4994007;28;20278;-87
2021/11/03 09:17:48;;;;;;;3.38;3.08;;;;;;;;;;4994874;28;20207;-88
2021/11/03 09:20:20;;;;;;;3.80;3.40;;;;;;;;;;4992928;28;20220;-90
2021/11/03 09:23:35;;;;;;;5.00;4.50;;;;;;;;;;4993855;28;20225;-89
2021/11/03 09:26:04;;;;;;;5.18;4.78;;;;;;;;;;4995500;28;20270;-88
2021/11/03 09:29:25;;;;;;;3.88;3.58;;;;;;;;;;4997350;28;20315;-89
2021/11/03 09:32:42;;;;;;;4.43;4.03;;;;;;;;;;4997282;28;20204;-89
2021/11/03 09:35:20;;;;;;;4.78;4.38;;;;;;;;;;4997249;28;20218;-88
2021/11/03 09:37:51;;;;;;;4.93;4.53;;;;;;;;;;4997348;28;20513;-88
2021/11/03 09:40:27;;;;;;;4.82;4.45;;;;;;;;;;4996889;28;20219;-88
2021/11/03 09:43:50;;;;;;;4.70;4.30;;;;;;;;;;4996867;28;20219;-88
2021/11/03 09:46:50;;;;;;;4.85;4.40;;;;;;;;;;4997096;28;20204;-88
2021/11/03 09:49:41;;;;;;;3.83;3.53;;;;;;;;;;4996643;28;20251;-88
2021/11/03 09:52:36;;;;;;;3.70;3.38;;;;;;;;;;4989950;28;20569;-88
2021/11/03 09:55:25;;;;;;;4.25;3.95;;;;;;;;;;4997034;28;20555;-88
2021/11/03 09:58:05;;;;;;;4.20;3.80;;;;;;;;;;4996912;28;20189;-87
2021/11/03 10:01:03;;;;;;;5.70;5.20;;;;;;;;;;4997011;28;20258;-88
2021/11/03 10:03:45;;;;;;;5.90;5.30;;;;;;;;;;4997081;28;20223;-89
2021/11/03 10:06:52;;;;;;;6.78;6.18;;;;;;;;;;4997239;28;20656;-88
2021/11/03 10:09:21;;;;;;;5.97;5.47;;;;;;;;;;4997518;28;20227;-87
2021/11/03 10:12:19;;;;;;;7.75;6.70;;;;;;;;;;4996901;28;20295;-87
2021/11/03 10:15:00;;;;;;;7.25;6.55;;;;;;;;;;4997334;28;20544;-88
2021/11/03 10:17:32;;;;;;;6.15;5.55;;;;;;;;;;4998469;28;20638;-86
2021/11/03 10:20:29;;;;;;;7.68;6.80;;;;;;;;;;5015607;28;20230;-86
2021/11/03 10:23:09;;;;;;;6.07;5.43;;;;;;;;;;5019437;28;20206;-87
2021/11/03 10:25:38;;;;;;;6.68;5.97;;;;;;;;;;5017432;28;20202;-88
2021/11/03 10:28:05;;;;;;;6.00;5.50;;;;;;;;;;5016348;28;20585;-88
2021/11/03 10:30:51;;;;;;;8.80;7.47;;;;;;;;;;5016403;28;20701;-87
2021/11/03 10:33:33;;;;;;;7.80;6.88;;;;;;;;;;5016582;28;20205;-88
2021/11/03 10:36:25;;;;;;;8.48;7.65;;;;;;;;;;5018036;28;20534;-87
2021/11/03 10:39:00;;;;;;;6.82;6.13;;;;;;;;;;5017191;28;20226;-87
2021/11/03 10:41:42;;;;;;;8.52;7.70;;;;;;;;;;5017590;28;20195;-87
2021/11/03 10:44:34;;;;;;;7.70;7.00;;;;;;;;;;5017112;28;20613;-86
2021/11/03 10:47:13;;;;;;;7.38;6.68;;;;;;;;;;5027160;28;20195;-87
2021/11/03 10:52:56;;;;;;;5.50;5.00;;;;;;;;;;5034623;28;20233;-87
2021/11/03 10:55:45;;;;;;;5.05;4.40;;;;;;;;;;5036479;28;20178;-87
2021/11/03 10:58:25;;;;;;;6.65;5.22;;;;;;;;;;5036857;28;20657;-87
2021/11/03 11:01:06;;;;;;;4.35;4.00;;;;;;;;;;5019745;28;20564;-86
2021/11/03 11:03:39;;;;;;;5.47;4.55;;;;;;;;;;5019955;28;20321;-86
2021/11/03 11:06:22;;;;;;;4.13;3.72;;;;;;;;;;5020306;28;20199;-87
2021/11/03 11:08:54;;;;;;;3.70;3.42;;;;;;;;;;5020481;28;20689;-86
2021/11/03 11:11:33;;;;;;;3.80;3.40;;;;;;;;;;5019190;28;20227;-86
2021/11/03 11:14:22;;;;;;;3.40;3.13;;;;;;;;;;5018076;28;20195;-86
2021/11/03 11:16:57;;;;;;;2.97;2.78;;;;;;;;;;5018783;28;20626;-86
2021/11/03 11:19:48;;;;;;;2.75;2.55;;;;;;;;;;5018401;28;20233;-86
2021/11/03 11:22:36;;;;;;;3.75;3.45;;;;;;;;;;5024506;28;20190;-86
2021/11/03 11:25:33;;;;;;;2.85;2.65;;;;;;;;;;5038006;28;20214;-87
2021/11/03 11:28:18;;;;;;;3.53;3.22;;;;;;;;;;5038630;28;20199;-86
2021/11/03 11:31:09;;;;;;;2.95;2.75;;;;;;;;;;5028077;28;20198;-87
2021/11/03 11:33:43;;;;;;;2.97;2.78;;;;;;;;;;5028006;28;20253;-86
2021/11/03 11:36:27;;;;;;;4.88;4.47;;;;;;;;;;5037154;28;20209;-86
2021/11/03 11:39:22;;;;;;;3.65;3.35;;;;;;;;;;4998294;28;20717;-86
2021/11/03 11:42:11;;;;;;;4.25;3.85;;;;;;;;;;4998734;28;20203;-87
2021/11/03 11:45:20;;;;;;;4.97;4.57;;;;;;;;;;5017381;28;20210;-86
2021/11/03 11:47:50;;;;;;;5.20;4.47;;;;;;;;;;5017099;28;20203;-86
2021/11/03 11:50:42;;;;;;;6.32;5.72;;;;;;;;;;5018216;28;20219;-87
2021/11/03 11:53:31;;;;;;;6.13;5.55;;;;;;;;;;5028618;28;20224;-86
2021/11/03 11:56:22;;;;;;;8.60;7.13;;;;;;;;;;5022556;28;20613;-86
2021/11/03 11:58:55;;;;;;;6.82;6.13;;;;;;;;;;5024719;28;20236;-87
2021/11/03 12:01:56;;;;;;;6.60;5.78;;;;;;;;;;5032262;28;20237;-86
2021/11/03 12:04:46;;;;;;;6.03;5.47;;;;;;;;;;5011129;28;20217;-87
2021/11/03 12:07:27;;;;;;;5.25;4.75;;;;;;;;;;5013964;28;20222;-87
2021/11/03 12:10:26;;;;;;;5.53;5.03;;;;;;;;;;5013232;28;20226;-87
2021/11/03 12:13:21;;;;;;;4.43;4.03;;;;;;;;;;5013519;28;20207;-87
2021/11/03 12:16:19;;;;;;;4.28;3.88;;;;;;;;;;5013103;28;20684;-87
2021/11/03 12:18:55;;;;;;;3.13;2.83;;;;;;;;;;5013094;28;20701;-87
2021/11/03 12:21:59;;;;;;;2.22;2.10;;;;;;;;;;5012035;28;20294;-87
2021/11/03 12:24:35;;;;;;;2.60;2.40;;;;;;;;;;4993566;28;20338;-88
2021/11/03 12:27:33;;;;;;;2.17;2.08;;;;;;;;;;4993654;28;20195;-87
2021/11/03 12:30:36;;;;;;;2.20;2.10;;;;;;;;;;4992749;28;20231;-87
2021/11/03 12:33:07;;;;;;;2.03;1.92;;;;;;;;;;5007974;28;20199;-87
2021/11/03 12:36:12;;;;;;;2.28;2.17;;;;;;;;;;5013613;28;20205;-89
2021/11/03 12:38:58;;;;;;;2.70;2.50;;;;;;;;;;5013371;28;20227;-87
2021/11/03 12:41:41;;;;;;;2.90;2.70;;;;;;;;;;5012179;28;20203;-87
2021/11/03 12:44:34;;;;;;;3.13;2.90;;;;;;;;;;5012987;28;20581;-86
2021/11/03 12:47:02;;;;;;;3.72;3.42;;;;;;;;;;5013006;28;20203;-87
2021/11/03 12:49:30;;;;;;;4.53;4.13;;;;;;;;;;5014115;28;20233;-85
2021/11/03 12:52:01;;;;;;;4.47;4.07;;;;;;;;;;5014044;28;20197;-86
2021/11/03 12:54:30;;;;;;;3.30;3.10;;;;;;;;;;5012656;28;20233;-87
2021/11/03 12:57:02;;;;;;;3.00;2.80;;;;;;;;;;5012615;28;20209;-87
2021/11/03 12:59:32;;;;;;;3.28;3.08;;;;;;;;;;5012916;28;20277;-89
2021/11/03 13:02:02;;;;;;;4.15;3.85;;;;;;;;;;5012516;28;20195;-87
2021/11/03 13:04:32;;;;;;;3.88;3.53;;;;;;;;;;5012589;28;20230;-88
2021/11/03 13:07:04;;;;;;;3.78;3.47;;;;;;;;;;5012659;28;20214;-88
2021/11/03 13:09:34;;;;;;;4.25;3.85;;;;;;;;;;5012625;28;20250;-88
2021/11/03 13:12:03;;;;;;;2.75;2.55;;;;;;;;;;5006987;28;20187;-88
2021/11/03 13:14:34;;;;;;;3.05;2.75;;;;;;;;;;4993608;28;20214;-88
2021/11/03 13:17:03;;;;;;;2.70;2.50;;;;;;;;;;4993825;28;20235;-87
2021/11/03 13:19:35;;;;;;;3.00;2.70;;;;;;;;;;4993495;28;20694;-88
2021/11/03 13:22:22;;;;;;;2.40;2.20;;;;;;;;;;4993219;28;20199;-88
2021/11/03 13:24:51;;;;;;;2.92;2.72;;;;;;;;;;4993113;28;20227;-88
2021/11/03 13:27:22;;;;;;;3.50;3.20;;;;;;;;;;4994884;28;20218;-89
2021/11/03 13:29:54;;;;;;;4.15;3.80;;;;;;;;;;4994165;28;20719;-89
2021/11/03 13:32:27;;;;;;;3.90;3.60;;;;;;;;;;4993034;28;20292;-88
2021/11/03 13:35:16;;;;;;;4.28;3.88;;;;;;;;;;4993073;28;20207;-89
2021/11/03 13:37:57;;;;;;;4.78;4.30;;;;;;;;;;4993160;28;20212;-88
2021/11/03 13:40:31;;;;;;;5.90;4.60;;;;;;;;;;4992791;28;20660;-89
2021/11/03 13:43:15;;;;;;;4.75;4.30;;;;;;;;;;4992961;28;20211;-88
2021/11/03 13:45:45;;;;;;;3.97;3.67;;;;;;;;;;4992473;28;20302;-90
2021/11/03 13:48:27;;;;;;;4.68;4.28;;;;;;;;;;4992773;28;20215;-88
2021/11/03 13:51:17;;;;;;;3.00;2.80;;;;;;;;;;4992708;28;20734;-89
2021/11/03 13:54:03;;;;;;;3.15;2.90;;;;;;;;;;4992435;28;20231;-90
2021/11/03 13:56:33;;;;;;;3.47;3.17;;;;;;;;;;4992942;28;20203;-89
2021/11/03 13:59:20;;;;;;;4.18;3.78;;;;;;;;;;4992595;28;20235;-86
2021/11/03 14:01:51;;;;;;;3.20;2.90;;;;;;;;;;4992636;28;20571;-87
2021/11/03 14:04:22;;;;;;;3.20;2.97;;;;;;;;;;4992829;28;20199;-88
2021/11/03 14:07:25;;;;;;;2.88;2.65;;;;;;;;;;4993215;28;20223;-87
2021/11/03 14:09:57;;;;;;;3.40;3.13;;;;;;;;;;4951957;29;20239;-87
2021/11/03 14:12:26;;;;;;;3.28;3.08;;;;;;;;;;4953025;28;20209;-86
2021/11/03 14:14:56;;;;;;;3.13;2.67;;;;;;;;;;4975662;28;20203;-87
2021/11/03 14:17:29;;;;;;;3.47;2.90;;;;;;;;;;4996355;28;20211;-88
2021/11/03 14:20:03;;;;;;;3.45;3.15;;;;;;;;;;4998869;28;20227;-87
2021/11/03 14:22:36;;;;;;;3.60;3.30;;;;;;;;;;4996319;28;20207;-87
2021/11/03 14:25:20;;;;;;;2.70;2.50;;;;;;;;;;4996040;28;20208;-87
2021/11/03 14:27:48;;;;;;;3.45;3.15;;;;;;;;;;4996056;28;20191;-87
2021/11/03 14:31:05;;;;;;;3.53;2.83;;;;;;;;;;4996843;28;20223;-89
2021/11/03 14:33:40;;;;;;;3.70;3.10;;;;;;;;;;4996229;28;20208;-87
2021/11/03 14:36:12;;;;;;;2.50;2.30;;;;;;;;;;4996170;28;20254;-88
2021/11/03 14:38:41;;;;;;;2.30;2.10;;;;;;;;;;4995817;28;20224;-87
2021/11/03 14:41:14;;;;;;;2.50;2.33;;;;;;;;;;4995709;28;20212;-88
2021/11/03 14:43:42;;;;;;;3.08;2.88;;;;;;;;;;4995158;28;20200;-90
2021/11/03 14:46:24;;;;;;;2.60;2.40;;;;;;;;;;4995197;28;20219;-87
2021/11/03 14:48:53;;;;;;;2.45;2.25;;;;;;;;;;4995227;28;20698;-88
2021/11/03 14:51:22;;;;;;;1.50;1.40;;;;;;;;;;4995588;28;20199;-88
2021/11/03 14:53:51;;;;;;;1.90;1.70;;;;;;;;;;4994950;28;20246;-87
2021/11/03 14:56:20;;;;;;;1.60;1.50;;;;;;;;;;4995353;28;20199;-88
2021/11/03 14:58:48;;;;;;;2.10;1.90;;;;;;;;;;4995161;28;20228;-87
2021/11/03 15:01:33;;;;;;;1.73;1.63;;;;;;;;;;4995018;28;20585;-88
2021/11/03 15:04:07;;;;;;;1.52;1.42;;;;;;;;;;4994012;28;20689;-88
2021/11/03 15:06:34;;;;;;;1.90;1.80;;;;;;;;;;4994902;28;20226;-88
2021/11/03 15:09:02;;;;;;;1.73;1.63;;;;;;;;;;5004408;28;20227;-88
2021/11/03 15:11:31;;;;;;;2.10;1.85;;;;;;;;;;5014646;28;20209;-89
2021/11/03 15:13:58;;;;;;;2.40;2.25;;;;;;;;;;5014343;28;20203;-88
2021/11/03 15:16:30;;;;;;;2.38;2.17;;;;;;;;;;5014919;28;20205;-88
2021/11/03 15:18:58;;;;;;;2.65;2.45;;;;;;;;;;5014194;28;20227;-87
2021/11/03 15:21:25;;;;;;;2.33;2.13;;;;;;;;;;5014223;28;20203;-88
2021/11/03 15:23:52;;;;;;;4.65;2.88;;;;;;;;;;5013722;28;20207;-88
2021/11/03 15:26:20;;;;;;;2.00;1.88;;;;;;;;;;5013794;28;20254;-88
2021/11/03 15:28:49;;;;;;;2.42;2.22;;;;;;;;;;5014092;28;20788;-88
2021/11/03 15:31:24;;;;;;;2.25;2.03;;;;;;;;;;5013831;28;20298;-87
2021/11/03 15:33:53;;;;;;;1.83;1.73;;;;;;;;;;5013853;28;20191;-88
2021/11/03 15:36:20;;;;;;;1.80;1.70;;;;;;;;;;5013857;28;20692;-88
2021/11/03 15:38:51;;;;;;;2.53;1.85;;;;;;;;;;5004888;28;20215;-88
2021/11/03 15:41:21;;;;;;;1.70;1.60;;;;;;;;;;4994172;28;20207;-88
2021/11/03 15:43:51;;;;;;;1.40;1.35;;;;;;;;;;4993837;28;20207;-88
2021/11/03 15:46:22;;;;;;;1.80;1.70;;;;;;;;;;4993916;28;20220;-87
2021/11/03 15:48:50;;;;;;;1.73;1.63;;;;;;;;;;4994116;28;20234;-88
2021/11/03 15:51:18;;;;;;;2.13;1.58;;;;;;;;;;4994164;28;20208;-88
2021/11/03 15:53:46;;;;;;;1.17;1.10;;;;;;;;;;4993975;28;20242;-88
2021/11/03 15:56:13;;;;;;;1.50;1.40;;;;;;;;;;4993863;28;20204;-88
2021/11/03 15:58:41;;;;;;;2.63;2.38;;;;;;;;;;4993846;28;20215;-87
2021/11/03 16:01:15;;;;;;;2.20;2.10;;;;;;;;;;4993928;28;20286;-88
2021/11/03 16:03:50;;;;;;;1.60;1.50;;;;;;;;;;4993929;28;20204;-87
2021/11/03 16:06:18;;;;;;;1.75;1.65;;;;;;;;;;5011799;28;20237;-88
2021/11/03 16:08:47;;;;;;;1.23;1.23;;;;;;;;;;5013265;28;20215;-88
2021/11/03 16:11:14;;;;;;;1.52;1.42;;;;;;;;;;5013364;28;20221;-88
2021/11/03 16:13:42;;;;;;;1.25;1.20;;;;;;;;;;5013371;28;20281;-88
2021/11/03 16:16:13;;;;;;;1.40;1.30;;;;;;;;;;4995544;28;20192;-87
2021/11/03 16:18:40;;;;;;;1.70;1.60;;;;;;;;;;4993956;28;20756;-88
2021/11/03 16:21:21;;;;;;;1.60;1.50;;;;;;;;;;5001041;28;20199;-87
2021/11/03 16:24:28;;;;;;;2.10;1.90;;;;;;;;;;5016261;28;20206;-87
2021/11/03 16:27:09;;;;;;;1.58;1.48;;;;;;;;;;5015311;28;20593;-86
2021/11/03 16:29:36;;;;;;;2.30;2.20;;;;;;;;;;5014985;28;20231;-86
2021/11/03 16:32:06;;;;;;;1.85;1.75;;;;;;;;;;5015071;28;20187;-86
2021/11/03 16:34:44;;;;;;;1.92;1.80;;;;;;;;;;5014397;28;20577;-88
2021/11/03 16:37:20;;;;;;;1.80;1.70;;;;;;;;;;5012901;28;20199;-88
2021/11/03 16:40:13;;;;;;;1.90;1.80;;;;;;;;;;5012397;28;20221;-88
2021/11/03 16:42:55;;;;;;;2.10;2.00;;;;;;;;;;5014151;28;20211;-88
2021/11/03 16:45:38;;;;;;;1.92;1.83;;;;;;;;;;5014040;28;20207;-88